Time;durP1;ratioP1;P1;durP2;ratioP2;P2;SDS_P1;SDS_P2;PMS_P1;PMS_P2;Temp;Humidity;BMP_temperature;BMP_pressure;BME280_temperature;BME280_humidity;BME280_pressure;Samples;Min_cycle;Max_cycle;Signal;HPM_P1;HPM_P2
2022/01/11 00:00:43;;;;;;;0.10;0.10;;;3.60;99.90;;;;;;4982099;28;20667;-70
2022/01/11 00:03:15;;;;;;;0.10;0.10;;;3.50;99.90;;;;;;4977043;28;21062;-69
2022/01/11 00:05:50;;;;;;;0.10;0.10;;;3.50;99.90;;;;;;5009320;28;20620;-69
2022/01/11 00:08:18;;;;;;;0.10;0.10;;;3.50;99.90;;;;;;4974814;28;20635;-69
2022/01/11 00:10:50;;;;;;;0.10;0.10;;;3.60;99.90;;;;;;4984251;28;20646;-69
2022/01/11 00:13:18;;;;;;;0.10;0.10;;;3.60;99.90;;;;;;4986839;28;20639;-69
2022/01/11 00:15:46;;;;;;;0.10;0.10;;;3.60;99.90;;;;;;4980064;28;20624;-69
2022/01/11 00:18:13;;;;;;;0.10;0.10;;;3.60;99.90;;;;;;4982521;28;20620;-70
2022/01/11 00:20:40;;;;;;;0.10;0.10;;;3.60;99.90;;;;;;4980297;28;20621;-69
2022/01/11 00:25:55;;;;;;;0.10;0.10;;;3.60;99.90;;;;;;4984044;28;20621;-71
2022/01/11 00:28:25;;;;;;;0.10;0.10;;;3.60;99.90;;;;;;4979981;28;20640;-69
2022/01/11 00:31:06;;;;;;;0.10;0.10;;;3.60;99.90;;;;;;4984926;28;20664;-70
2022/01/11 00:33:37;;;;;;;0.10;0.10;;;3.60;99.90;;;;;;4986105;28;20648;-70
2022/01/11 00:36:07;;;;;;;0.10;0.10;;;3.70;99.90;;;;;;4977271;28;20652;-69
2022/01/11 00:38:37;;;;;;;0.10;0.10;;;3.70;99.90;;;;;;4984569;28;20646;-69
2022/01/11 00:41:06;;;;;;;0.10;0.10;;;3.60;99.90;;;;;;4978013;28;20691;-69
2022/01/11 00:43:35;;;;;;;0.10;0.10;;;3.70;99.90;;;;;;4974982;28;20652;-68
2022/01/11 00:46:02;;;;;;;0.10;0.10;;;3.60;99.90;;;;;;4977698;28;20686;-70
2022/01/11 00:48:30;;;;;;;0.10;0.10;;;3.60;99.90;;;;;;4975404;28;20632;-69
2022/01/11 00:51:00;;;;;;;0.10;0.10;;;3.60;99.90;;;;;;4975305;28;20684;-69
2022/01/11 00:53:27;;;;;;;0.10;0.10;;;3.60;99.90;;;;;;4980751;28;20660;-69
2022/01/11 00:55:55;;;;;;;0.10;0.10;;;3.60;99.90;;;;;;4984636;28;20627;-69
2022/01/11 00:58:22;;;;;;;0.10;0.10;;;3.60;99.90;;;;;;4979439;28;21199;-70
2022/01/11 01:00:49;;;;;;;0.10;0.10;;;3.60;99.90;;;;;;4984001;28;20620;-69
2022/01/11 01:03:17;;;;;;;0.10;0.10;;;3.60;99.90;;;;;;4979045;28;20667;-68
2022/01/11 01:05:45;;;;;;;0.10;0.10;;;3.60;99.90;;;;;;4978167;28;20632;-69
2022/01/11 01:08:12;;;;;;;0.20;0.20;;;3.60;99.90;;;;;;4980073;28;20613;-69
2022/01/11 01:10:46;;;;;;;0.10;0.10;;;3.60;99.90;;;;;;4975348;28;20648;-68
2022/01/11 01:13:18;;;;;;;0.20;0.20;;;3.60;99.90;;;;;;4983169;28;20660;-70
2022/01/11 01:15:52;;;;;;;0.13;0.13;;;3.60;99.90;;;;;;4995939;28;20624;-70
2022/01/11 01:18:30;;;;;;;0.10;0.10;;;3.60;99.90;;;;;;4980269;28;20616;-69
2022/01/11 01:20:59;;;;;;;0.10;0.10;;;3.70;99.90;;;;;;4981220;28;20631;-70
2022/01/11 01:23:26;;;;;;;0.10;0.10;;;3.70;99.90;;;;;;4986840;28;20640;-70
2022/01/11 01:25:54;;;;;;;0.10;0.10;;;3.70;99.90;;;;;;4985007;28;20667;-71
2022/01/11 01:28:23;;;;;;;0.10;0.10;;;3.70;99.90;;;;;;4978439;28;20644;-69
2022/01/11 01:30:51;;;;;;;0.10;0.10;;;3.70;99.90;;;;;;4982312;28;20703;-69
2022/01/11 01:33:20;;;;;;;0.10;0.10;;;3.70;99.90;;;;;;4983940;28;20651;-69
2022/01/11 01:35:52;;;;;;;0.10;0.10;;;3.70;99.90;;;;;;4981664;28;20609;-69
2022/01/11 01:38:22;;;;;;;0.10;0.10;;;3.60;99.90;;;;;;4977360;28;20727;-69
2022/01/11 01:40:53;;;;;;;0.10;0.10;;;3.60;99.90;;;;;;4979228;28;20605;-69
2022/01/11 01:43:23;;;;;;;0.10;0.10;;;3.60;99.90;;;;;;4982801;28;20656;-70
2022/01/11 01:45:51;;;;;;;0.10;0.10;;;3.60;99.90;;;;;;4981893;28;20636;-70
2022/01/11 01:48:20;;;;;;;0.10;0.10;;;3.60;99.90;;;;;;4985061;28;20636;-69
2022/01/11 01:50:49;;;;;;;0.10;0.10;;;3.60;99.90;;;;;;4983378;28;20648;-69
2022/01/11 01:53:18;;;;;;;0.10;0.10;;;3.60;99.90;;;;;;4982417;28;21238;-69
2022/01/11 01:55:46;;;;;;;0.10;0.10;;;3.50;99.90;;;;;;4983114;28;20616;-69
2022/01/11 01:58:15;;;;;;;0.10;0.10;;;3.50;99.90;;;;;;4976251;28;20632;-68
2022/01/11 02:00:50;;;;;;;0.10;0.10;;;3.50;99.90;;;;;;4979390;28;21257;-69
2022/01/11 02:03:25;;;;;;;0.10;0.10;;;3.50;99.90;;;;;;4976307;28;20660;-69
2022/01/11 02:05:54;;;;;;;0.10;0.10;;;3.50;99.90;;;;;;4982282;28;20628;-71
2022/01/11 02:08:22;;;;;;;0.10;0.10;;;3.50;99.90;;;;;;4982575;28;20621;-69
2022/01/11 02:10:49;;;;;;;0.10;0.10;;;3.50;99.90;;;;;;4981397;28;20691;-70
2022/01/11 02:13:17;;;;;;;0.10;0.10;;;3.60;99.90;;;;;;4993228;28;20672;-69
2022/01/11 02:15:46;;;;;;;0.10;0.10;;;3.60;99.90;;;;;;4979373;28;20647;-71
2022/01/11 02:18:16;;;;;;;0.10;0.10;;;3.60;99.90;;;;;;4976945;28;20628;-70
2022/01/11 02:20:46;;;;;;;0.10;0.10;;;3.60;99.90;;;;;;4980922;28;20629;-69
2022/01/11 02:23:20;;;;;;;0.10;0.10;;;3.60;99.90;;;;;;4981881;28;20756;-69
2022/01/11 02:25:48;;;;;;;0.10;0.10;;;3.60;99.90;;;;;;4978234;28;20624;-69
2022/01/11 02:28:16;;;;;;;0.10;0.10;;;3.60;99.90;;;;;;4977939;28;20621;-69
2022/01/11 02:30:45;;;;;;;0.10;0.10;;;3.60;99.90;;;;;;4980446;28;20748;-70
2022/01/11 02:33:22;;;;;;;0.10;0.10;;;3.60;99.90;;;;;;4986152;28;20687;-69
2022/01/11 02:35:54;;;;;;;0.10;0.10;;;3.50;99.90;;;;;;4980425;28;20640;-69
2022/01/11 02:38:21;;;;;;;0.10;0.10;;;3.50;99.90;;;;;;4975632;28;20704;-68
2022/01/11 02:40:48;;;;;;;0.10;0.10;;;3.50;99.90;;;;;;4977921;28;20711;-69
2022/01/11 02:43:15;;;;;;;0.10;0.10;;;3.60;99.90;;;;;;4984403;28;20987;-69
2022/01/11 02:45:44;;;;;;;0.10;0.10;;;3.50;99.90;;;;;;4984565;28;20625;-69
2022/01/11 02:48:12;;;;;;;0.10;0.10;;;3.50;99.90;;;;;;4984920;28;20627;-70
2022/01/11 02:50:39;;;;;;;0.10;0.10;;;3.60;99.90;;;;;;4986433;28;21011;-69
2022/01/11 02:53:09;;;;;;;0.10;0.10;;;3.60;99.90;;;;;;4985025;28;21107;-70
2022/01/11 02:55:38;;;;;;;0.10;0.10;;;3.60;99.90;;;;;;4983277;28;20629;-68
2022/01/11 02:58:05;;;;;;;0.10;0.10;;;3.50;99.90;;;;;;4982570;28;20651;-68
2022/01/11 03:00:33;;;;;;;0.10;0.10;;;3.50;99.90;;;;;;4984653;28;20632;-70
2022/01/11 03:03:10;;;;;;;0.10;0.10;;;3.50;99.90;;;;;;4985050;28;20647;-69
2022/01/11 03:05:37;;;;;;;0.20;0.20;;;3.50;99.90;;;;;;4984416;28;20628;-69
2022/01/11 03:08:05;;;;;;;0.10;0.10;;;3.50;99.90;;;;;;4985469;28;20655;-69
2022/01/11 03:10:37;;;;;;;0.20;0.20;;;3.60;99.90;;;;;;4981680;28;20627;-69
2022/01/11 03:13:07;;;;;;;0.10;0.10;;;3.50;99.90;;;;;;4984874;28;20652;-68
2022/01/11 03:15:35;;;;;;;0.20;0.20;;;3.50;99.90;;;;;;4985773;28;20631;-71
2022/01/11 03:18:06;;;;;;;0.10;0.10;;;3.50;99.90;;;;;;4984662;28;20628;-70
2022/01/11 03:20:38;;;;;;;0.20;0.20;;;3.50;99.90;;;;;;4981335;28;20631;-70
2022/01/11 03:23:06;;;;;;;0.10;0.10;;;3.50;99.90;;;;;;4982339;28;20660;-70
2022/01/11 03:25:33;;;;;;;0.10;0.10;;;3.50;99.90;;;;;;4981911;28;20624;-70
2022/01/11 03:28:03;;;;;;;0.10;0.10;;;3.50;99.90;;;;;;4977606;28;21214;-70
2022/01/11 03:30:31;;;;;;;0.13;0.13;;;3.50;99.90;;;;;;4984684;28;20639;-70
2022/01/11 03:32:58;;;;;;;0.10;0.10;;;3.50;99.90;;;;;;4984196;28;20726;-70
2022/01/11 03:35:31;;;;;;;0.10;0.10;;;3.50;99.90;;;;;;4981938;28;20728;-71
2022/01/11 03:37:58;;;;;;;0.10;0.10;;;3.40;99.90;;;;;;4984264;28;20740;-70
2022/01/11 03:40:27;;;;;;;0.10;0.10;;;3.40;99.90;;;;;;4985839;28;20647;-70
2022/01/11 03:42:55;;;;;;;0.10;0.10;;;3.40;99.90;;;;;;4983901;28;20650;-69
2022/01/11 03:45:24;;;;;;;0.10;0.10;;;3.30;99.90;;;;;;4985245;28;20640;-70
2022/01/11 03:47:57;;;;;;;0.10;0.10;;;3.20;99.90;;;;;;4982914;28;20628;-70
2022/01/11 03:50:26;;;;;;;0.10;0.10;;;3.20;99.90;;;;;;4982488;28;20713;-70
2022/01/11 03:52:59;;;;;;;0.20;0.20;;;3.20;99.90;;;;;;4983948;28;20695;-70
2022/01/11 03:55:44;;;;;;;0.10;0.10;;;3.10;99.90;;;;;;4982574;28;20620;-69
2022/01/11 03:58:14;;;;;;;0.10;0.10;;;3.10;99.90;;;;;;4979364;28;20628;-70
2022/01/11 04:00:44;;;;;;;0.10;0.10;;;3.10;99.90;;;;;;4982967;28;20636;-69
2022/01/11 04:03:12;;;;;;;0.10;0.10;;;3.10;99.90;;;;;;4984672;28;20660;-69
2022/01/11 04:05:41;;;;;;;0.10;0.10;;;3.10;99.90;;;;;;4985017;28;20608;-69
2022/01/11 04:08:09;;;;;;;0.10;0.10;;;3.10;99.90;;;;;;4986105;28;20616;-70
2022/01/11 04:10:36;;;;;;;0.10;0.10;;;3.10;99.90;;;;;;4985417;28;20628;-69
2022/01/11 04:13:03;;;;;;;0.10;0.10;;;3.10;99.90;;;;;;4982200;28;20668;-70
2022/01/11 04:15:30;;;;;;;0.10;0.10;;;3.10;99.90;;;;;;4983568;28;20721;-69
2022/01/11 04:18:00;;;;;;;0.10;0.10;;;3.10;99.90;;;;;;4988500;28;20647;-70
2022/01/11 04:20:27;;;;;;;0.10;0.10;;;3.00;99.90;;;;;;4986685;28;21209;-69
2022/01/11 04:22:54;;;;;;;0.10;0.10;;;2.90;99.90;;;;;;4985849;28;20769;-69
2022/01/11 04:25:22;;;;;;;0.10;0.10;;;2.80;99.90;;;;;;4985584;28;20719;-69
2022/01/11 04:27:53;;;;;;;0.20;0.20;;;2.80;99.90;;;;;;4984524;28;20631;-69
2022/01/11 04:30:21;;;;;;;0.10;0.10;;;2.80;99.90;;;;;;4988619;28;20625;-70
2022/01/11 04:32:48;;;;;;;0.10;0.10;;;2.80;99.90;;;;;;4987354;28;20707;-70
2022/01/11 04:35:18;;;;;;;0.10;0.10;;;2.80;99.90;;;;;;4987499;28;20620;-69
2022/01/11 04:37:47;;;;;;;0.10;0.10;;;2.80;99.90;;;;;;4986158;28;20630;-70
2022/01/11 04:40:14;;;;;;;0.10;0.10;;;2.80;99.90;;;;;;4983740;28;20632;-69
2022/01/11 04:42:43;;;;;;;0.10;0.10;;;2.80;99.90;;;;;;4986857;28;20663;-70
2022/01/11 04:45:14;;;;;;;0.10;0.10;;;2.80;99.90;;;;;;4985689;28;20628;-70
2022/01/11 04:47:41;;;;;;;0.10;0.10;;;2.80;99.90;;;;;;4986549;28;20639;-70
2022/01/11 04:50:09;;;;;;;0.10;0.10;;;2.80;99.90;;;;;;4988570;28;20663;-70
2022/01/11 04:52:38;;;;;;;0.10;0.10;;;2.80;99.90;;;;;;4988308;28;20755;-70
2022/01/11 04:55:08;;;;;;;0.10;0.10;;;2.80;99.90;;;;;;4981097;28;20727;-70
2022/01/11 04:57:35;;;;;;;0.10;0.10;;;2.80;99.90;;;;;;4989763;28;20604;-70
2022/01/11 05:00:03;;;;;;;0.10;0.10;;;2.80;99.90;;;;;;5002454;28;20728;-70
2022/01/11 05:02:30;;;;;;;0.10;0.10;;;2.90;99.90;;;;;;4984554;28;20656;-70
2022/01/11 05:04:58;;;;;;;0.10;0.10;;;2.90;99.90;;;;;;4987625;28;20636;-69
2022/01/11 05:07:25;;;;;;;0.10;0.10;;;2.90;99.90;;;;;;4981856;28;20657;-69
2022/01/11 05:09:53;;;;;;;0.10;0.10;;;2.90;99.90;;;;;;4984633;28;20632;-70
2022/01/11 05:12:21;;;;;;;0.10;0.10;;;2.90;99.90;;;;;;4991609;28;21258;-69
2022/01/11 05:14:48;;;;;;;0.10;0.10;;;2.90;99.90;;;;;;4988946;28;20633;-70
2022/01/11 05:17:15;;;;;;;0.10;0.10;;;2.90;99.90;;;;;;4991917;28;20663;-69
2022/01/11 05:19:42;;;;;;;0.10;0.10;;;2.90;99.90;;;;;;4989180;28;20978;-70
2022/01/11 05:22:10;;;;;;;0.10;0.10;;;2.90;99.90;;;;;;4981196;28;20664;-70
2022/01/11 05:24:36;;;;;;;0.10;0.10;;;2.90;99.90;;;;;;4979525;28;20680;-69
2022/01/11 05:27:06;;;;;;;0.10;0.10;;;2.90;99.90;;;;;;4977042;28;20667;-69
2022/01/11 05:29:33;;;;;;;0.10;0.10;;;2.90;99.90;;;;;;4985055;28;21079;-69
2022/01/11 05:32:02;;;;;;;0.10;0.10;;;2.90;99.90;;;;;;4988511;28;20660;-71
2022/01/11 05:34:30;;;;;;;0.10;0.10;;;3.00;99.90;;;;;;4984690;28;20637;-68
2022/01/11 05:36:57;;;;;;;0.10;0.10;;;3.00;99.90;;;;;;4984526;28;20624;-69
2022/01/11 05:39:25;;;;;;;0.10;0.10;;;3.00;99.90;;;;;;4982593;28;20621;-69
2022/01/11 05:41:53;;;;;;;0.10;0.10;;;3.00;99.90;;;;;;4987088;28;20635;-69
2022/01/11 05:44:22;;;;;;;0.10;0.10;;;3.00;99.90;;;;;;4984268;28;20634;-69
2022/01/11 05:46:49;;;;;;;0.10;0.10;;;3.00;99.90;;;;;;4987541;28;20636;-70
2022/01/11 05:49:16;;;;;;;0.10;0.10;;;3.00;99.90;;;;;;4982440;28;20723;-69
2022/01/11 05:51:44;;;;;;;0.10;0.10;;;3.00;99.90;;;;;;4979394;28;20620;-70
2022/01/11 05:54:11;;;;;;;0.10;0.10;;;3.00;99.90;;;;;;4978003;28;20676;-69
2022/01/11 05:56:39;;;;;;;0.10;0.10;;;3.00;99.90;;;;;;4986938;28;20638;-68
2022/01/11 05:59:06;;;;;;;0.10;0.10;;;3.00;99.90;;;;;;4987891;28;20617;-68
2022/01/11 06:01:35;;;;;;;0.10;0.10;;;3.00;99.90;;;;;;4978931;28;20656;-69
2022/01/11 06:04:04;;;;;;;0.10;0.10;;;3.00;99.90;;;;;;4996234;28;20704;-68
2022/01/11 06:06:31;;;;;;;0.10;0.10;;;3.00;99.90;;;;;;4983011;28;20631;-69
2022/01/11 06:09:01;;;;;;;0.10;0.10;;;3.00;99.90;;;;;;4977453;28;20644;-69
2022/01/11 06:11:29;;;;;;;0.10;0.10;;;3.00;99.90;;;;;;4988291;28;20696;-69
2022/01/11 06:13:56;;;;;;;0.10;0.10;;;3.00;99.90;;;;;;4972947;28;20678;-68
2022/01/11 06:16:23;;;;;;;0.10;0.10;;;3.00;99.90;;;;;;4986747;28;20674;-68
2022/01/11 06:18:54;;;;;;;0.10;0.10;;;3.00;99.90;;;;;;4986452;28;20648;-69
2022/01/11 06:21:44;;;;;;;0.10;0.10;;;3.00;99.90;;;;;;4986099;28;20690;-69
2022/01/11 06:24:12;;;;;;;0.10;0.10;;;3.10;99.90;;;;;;4986357;28;20648;-69
2022/01/11 06:26:39;;;;;;;0.10;0.10;;;3.10;99.90;;;;;;4982607;28;20620;-69
2022/01/11 06:29:06;;;;;;;0.10;0.10;;;3.10;99.90;;;;;;4985457;28;20624;-69
2022/01/11 06:31:35;;;;;;;0.10;0.10;;;3.10;99.90;;;;;;4987898;28;20663;-69
2022/01/11 06:34:04;;;;;;;0.10;0.10;;;3.10;99.90;;;;;;4986049;28;20763;-70
2022/01/11 06:36:31;;;;;;;0.10;0.10;;;3.10;99.90;;;;;;4987781;28;20639;-69
2022/01/11 06:38:59;;;;;;;0.10;0.10;;;3.10;99.90;;;;;;4984310;28;20617;-68
2022/01/11 06:41:30;;;;;;;0.10;0.10;;;3.10;99.90;;;;;;4985933;28;20629;-69
2022/01/11 06:43:59;;;;;;;0.10;0.10;;;3.10;99.90;;;;;;4986207;28;20664;-69
2022/01/11 06:46:28;;;;;;;0.10;0.10;;;3.10;99.90;;;;;;4982281;28;20616;-69
2022/01/11 06:49:00;;;;;;;0.10;0.10;;;3.10;99.90;;;;;;4987278;28;20620;-69
2022/01/11 06:51:29;;;;;;;0.10;0.10;;;3.10;99.90;;;;;;4985446;28;20690;-69
2022/01/11 06:53:56;;;;;;;0.10;0.10;;;3.10;99.90;;;;;;4987292;28;20692;-67
2022/01/11 06:56:24;;;;;;;0.10;0.10;;;3.10;99.90;;;;;;4984570;28;20733;-69
2022/01/11 06:58:57;;;;;;;0.10;0.10;;;3.10;99.90;;;;;;4985128;28;20736;-69
2022/01/11 07:01:24;;;;;;;0.10;0.10;;;3.10;99.90;;;;;;4983985;28;20633;-69
2022/01/11 07:04:00;;;;;;;0.10;0.10;;;3.10;99.90;;;;;;4985680;28;20701;-69
2022/01/11 07:06:31;;;;;;;0.10;0.10;;;3.10;99.90;;;;;;4986963;28;20655;-69
2022/01/11 07:08:59;;;;;;;0.10;0.10;;;3.10;99.90;;;;;;4985919;28;20663;-69
2022/01/11 07:11:31;;;;;;;0.10;0.10;;;3.10;99.90;;;;;;4986167;28;20628;-68
2022/01/11 07:14:02;;;;;;;0.10;0.10;;;3.10;99.90;;;;;;4985279;28;20683;-69
2022/01/11 07:16:29;;;;;;;0.10;0.10;;;3.10;99.90;;;;;;4982129;28;20628;-69
2022/01/11 07:18:56;;;;;;;0.10;0.10;;;3.10;99.90;;;;;;4985884;28;20629;-68
2022/01/11 07:21:24;;;;;;;0.10;0.10;;;3.10;99.90;;;;;;4983859;28;20632;-70
2022/01/11 07:23:53;;;;;;;0.10;0.10;;;3.10;99.90;;;;;;4985807;28;20652;-69
2022/01/11 07:26:20;;;;;;;0.13;0.13;;;3.20;99.90;;;;;;4983389;28;20990;-69
2022/01/11 07:28:47;;;;;;;0.10;0.10;;;3.20;99.90;;;;;;4982936;28;20628;-68
2022/01/11 07:31:18;;;;;;;0.10;0.10;;;3.20;99.90;;;;;;5012483;28;20625;-68
2022/01/11 07:33:49;;;;;;;0.10;0.10;;;3.20;99.90;;;;;;4986010;28;20686;-68
2022/01/11 07:36:16;;;;;;;0.10;0.10;;;3.20;99.90;;;;;;4985427;28;20684;-69
2022/01/11 07:38:47;;;;;;;0.10;0.10;;;3.20;99.90;;;;;;4986552;28;20726;-69
2022/01/11 07:41:22;;;;;;;0.10;0.10;;;3.20;99.90;;;;;;4984424;28;20630;-69
2022/01/11 07:44:12;;;;;;;0.10;0.10;;;3.20;99.90;;;;;;4982992;28;20668;-68
2022/01/11 07:46:42;;;;;;;0.10;0.10;;;3.20;99.90;;;;;;4987402;28;20651;-69
2022/01/11 07:49:15;;;;;;;0.10;0.10;;;3.20;99.90;;;;;;4984947;28;20628;-68
2022/01/11 07:51:42;;;;;;;0.20;0.20;;;3.20;99.90;;;;;;4987786;28;20616;-70
2022/01/11 07:54:10;;;;;;;0.10;0.10;;;3.20;99.90;;;;;;4985510;28;20763;-69
2022/01/11 07:56:40;;;;;;;0.10;0.10;;;3.20;99.90;;;;;;4983609;28;20620;-69
2022/01/11 07:59:09;;;;;;;0.10;0.10;;;3.20;99.90;;;;;;4981022;28;20621;-68
2022/01/11 08:01:41;;;;;;;0.17;0.17;;;3.20;99.90;;;;;;4985055;28;20614;-69
2022/01/11 08:04:08;;;;;;;0.10;0.10;;;3.20;99.90;;;;;;4984458;28;20663;-69
2022/01/11 08:06:42;;;;;;;0.10;0.10;;;3.20;99.90;;;;;;4986005;28;20647;-69
2022/01/11 08:09:20;;;;;;;0.10;0.10;;;3.20;99.90;;;;;;4981599;28;20625;-69
2022/01/11 08:11:50;;;;;;;0.10;0.10;;;3.20;99.90;;;;;;4984740;28;20746;-69
2022/01/11 08:14:17;;;;;;;0.10;0.10;;;3.20;99.90;;;;;;4984521;28;20659;-69
2022/01/11 08:16:45;;;;;;;0.10;0.10;;;3.20;99.90;;;;;;4985580;28;20640;-69
2022/01/11 08:19:12;;;;;;;0.10;0.10;;;3.20;99.90;;;;;;4983363;28;20620;-69
2022/01/11 08:21:39;;;;;;;0.10;0.10;;;3.20;99.90;;;;;;4984703;28;20624;-69
2022/01/11 08:24:07;;;;;;;0.10;0.10;;;3.30;99.90;;;;;;4984509;28;20675;-69
2022/01/11 08:26:37;;;;;;;0.10;0.10;;;3.30;99.90;;;;;;4982542;28;20637;-69
2022/01/11 08:29:05;;;;;;;0.10;0.10;;;3.30;99.90;;;;;;4983545;28;20636;-69
2022/01/11 08:31:35;;;;;;;0.10;0.10;;;3.30;99.90;;;;;;4982612;28;20644;-68
2022/01/11 08:34:05;;;;;;;0.10;0.10;;;3.30;99.90;;;;;;4981120;28;20679;-69
2022/01/11 08:36:33;;;;;;;0.10;0.10;;;3.30;99.90;;;;;;4984996;28;20692;-69
2022/01/11 08:39:03;;;;;;;0.10;0.10;;;3.30;99.90;;;;;;4982028;28;20620;-68
2022/01/11 08:41:32;;;;;;;0.10;0.10;;;3.40;99.90;;;;;;4983070;28;20621;-69
2022/01/11 08:44:05;;;;;;;0.10;0.10;;;3.40;99.90;;;;;;4984850;28;20666;-69
2022/01/11 08:46:33;;;;;;;0.10;0.10;;;3.40;99.90;;;;;;4984372;28;20634;-69
2022/01/11 08:49:06;;;;;;;0.10;0.10;;;3.40;99.90;;;;;;4987337;28;20621;-69
2022/01/11 08:51:34;;;;;;;0.10;0.10;;;3.40;99.90;;;;;;4988112;28;20624;-69
2022/01/11 08:54:02;;;;;;;0.10;0.10;;;3.40;99.90;;;;;;4987401;28;20777;-69
2022/01/11 08:56:31;;;;;;;0.10;0.10;;;3.40;99.90;;;;;;4987437;28;20620;-69
2022/01/11 08:58:59;;;;;;;0.20;0.20;;;3.40;99.90;;;;;;4982260;28;20629;-68
2022/01/11 09:01:34;;;;;;;0.10;0.10;;;3.40;99.90;;;;;;4986878;28;20624;-69
2022/01/11 09:04:02;;;;;;;0.10;0.10;;;3.30;99.90;;;;;;4987383;28;20663;-68
2022/01/11 09:06:33;;;;;;;0.10;0.10;;;3.40;99.90;;;;;;4987481;28;21007;-68
2022/01/11 09:09:02;;;;;;;0.10;0.10;;;3.40;99.90;;;;;;4984967;28;20619;-69
2022/01/11 09:11:29;;;;;;;0.10;0.10;;;3.40;99.90;;;;;;4986384;28;21073;-69
2022/01/11 09:13:56;;;;;;;0.10;0.10;;;3.40;99.90;;;;;;4987584;28;20668;-68
2022/01/11 09:16:24;;;;;;;0.10;0.10;;;3.40;99.90;;;;;;4988465;28;20662;-70
2022/01/11 09:18:54;;;;;;;0.10;0.10;;;3.40;99.90;;;;;;4987748;28;20667;-68
2022/01/11 09:21:22;;;;;;;0.10;0.10;;;3.40;99.90;;;;;;4984481;28;20632;-69
2022/01/11 09:23:51;;;;;;;0.10;0.10;;;3.40;99.90;;;;;;4986846;28;20651;-69
2022/01/11 09:26:18;;;;;;;0.10;0.10;;;3.40;99.90;;;;;;4982024;28;20629;-69
2022/01/11 09:28:52;;;;;;;0.10;0.10;;;3.40;99.90;;;;;;4986137;28;20715;-69
2022/01/11 09:31:23;;;;;;;0.10;0.10;;;3.40;99.90;;;;;;4984771;28;20709;-68
2022/01/11 09:33:54;;;;;;;0.10;0.10;;;3.40;99.90;;;;;;4987167;28;20678;-68
2022/01/11 09:36:21;;;;;;;0.10;0.10;;;3.50;99.90;;;;;;4979916;28;20709;-69
2022/01/11 09:38:48;;;;;;;0.10;0.10;;;3.40;99.90;;;;;;4987495;28;20715;-69
2022/01/11 09:41:15;;;;;;;0.10;0.10;;;3.50;99.90;;;;;;4980505;28;21234;-68
2022/01/11 09:43:44;;;;;;;0.20;0.20;;;3.50;99.90;;;;;;4987361;28;20656;-69
2022/01/11 09:46:12;;;;;;;0.10;0.10;;;3.40;99.90;;;;;;4986059;28;20636;-68
2022/01/11 09:48:43;;;;;;;0.10;0.10;;;3.40;99.90;;;;;;4986381;28;20644;-68
2022/01/11 09:51:13;;;;;;;0.10;0.10;;;3.40;99.90;;;;;;4985730;28;20643;-68
2022/01/11 09:53:40;;;;;;;0.10;0.10;;;3.40;99.90;;;;;;4986807;28;21017;-68
2022/01/11 09:56:11;;;;;;;0.10;0.10;;;3.40;99.90;;;;;;4983727;28;20723;-69
2022/01/11 09:58:40;;;;;;;0.10;0.10;;;3.40;99.90;;;;;;4985423;28;20682;-69
2022/01/11 10:01:39;;;;;;;0.10;0.10;;;3.40;99.90;;;;;;4975830;28;20623;-69
2022/01/11 10:04:10;;;;;;;0.10;0.10;;;3.30;99.90;;;;;;4986976;28;20640;-69
2022/01/11 10:07:00;;;;;;;0.20;0.20;;;3.30;99.90;;;;;;4986977;28;21274;-69
2022/01/11 10:09:30;;;;;;;0.10;0.10;;;3.30;99.90;;;;;;4982342;28;20653;-69
2022/01/11 10:12:00;;;;;;;0.10;0.10;;;3.30;99.90;;;;;;4986130;28;20621;-69
2022/01/11 10:14:31;;;;;;;0.10;0.10;;;3.20;99.90;;;;;;4986050;28;20771;-69
2022/01/11 10:17:11;;;;;;;0.10;0.10;;;3.20;99.90;;;;;;4985332;28;20616;-68
2022/01/11 10:19:41;;;;;;;0.10;0.10;;;3.20;99.90;;;;;;4984602;28;20621;-70
2022/01/11 10:22:11;;;;;;;0.10;0.10;;;3.20;99.90;;;;;;4986243;28;20624;-69
2022/01/11 10:24:42;;;;;;;0.10;0.10;;;3.10;99.90;;;;;;4982327;28;20679;-69
2022/01/11 10:27:19;;;;;;;0.10;0.10;;;3.10;99.90;;;;;;4986383;28;20647;-69
2022/01/11 10:29:50;;;;;;;0.10;0.10;;;3.00;99.90;;;;;;4978802;28;21218;-69
2022/01/11 10:32:25;;;;;;;0.10;0.10;;;2.90;99.90;;;;;;4983340;28;20656;-69
2022/01/11 10:34:58;;;;;;;0.13;0.13;;;2.90;99.90;;;;;;4988197;28;20659;-69
2022/01/11 10:37:33;;;;;;;0.10;0.10;;;2.80;99.90;;;;;;4982502;28;20746;-69
2022/01/11 10:40:07;;;;;;;0.10;0.10;;;2.80;99.90;;;;;;4986434;28;21205;-69
2022/01/11 10:42:38;;;;;;;0.10;0.10;;;2.80;99.90;;;;;;4979760;28;20675;-69
2022/01/11 10:45:09;;;;;;;0.10;0.10;;;2.70;99.90;;;;;;4983805;28;20640;-69
2022/01/11 10:47:41;;;;;;;0.10;0.10;;;2.70;99.90;;;;;;4983834;28;20659;-70
2022/01/11 10:50:12;;;;;;;0.20;0.20;;;2.70;99.90;;;;;;4985948;28;20702;-68
2022/01/11 10:52:43;;;;;;;0.17;0.17;;;2.70;99.90;;;;;;4985803;28;20684;-68
2022/01/11 10:55:22;;;;;;;0.10;0.10;;;2.70;99.90;;;;;;4986010;28;20671;-69
2022/01/11 10:57:51;;;;;;;0.10;0.10;;;2.70;99.90;;;;;;4979435;28;20696;-70
2022/01/11 11:00:25;;;;;;;0.10;0.10;;;2.60;99.90;;;;;;4978983;28;20648;-68
2022/01/11 11:02:57;;;;;;;0.10;0.10;;;2.60;99.90;;;;;;4984768;28;20656;-68
2022/01/11 11:05:29;;;;;;;0.10;0.10;;;2.60;99.90;;;;;;4981240;28;21049;-68
2022/01/11 11:08:07;;;;;;;0.10;0.10;;;2.60;99.90;;;;;;4982923;28;20719;-69
2022/01/11 11:10:47;;;;;;;0.10;0.10;;;2.60;99.90;;;;;;4985220;28;20612;-69
2022/01/11 11:13:22;;;;;;;0.10;0.10;;;2.60;99.90;;;;;;4986104;28;20663;-69
2022/01/11 11:15:51;;;;;;;0.17;0.17;;;2.60;99.90;;;;;;4980984;28;21132;-68
2022/01/11 11:18:31;;;;;;;0.10;0.10;;;2.60;99.90;;;;;;4985221;28;20612;-70
2022/01/11 11:21:17;;;;;;;0.10;0.10;;;2.60;99.90;;;;;;4984339;28;20624;-70
2022/01/11 11:23:48;;;;;;;0.10;0.10;;;2.50;99.90;;;;;;4985008;28;20751;-69
2022/01/11 11:26:17;;;;;;;0.13;0.13;;;2.50;99.90;;;;;;4983386;28;20613;-68
2022/01/11 11:28:44;;;;;;;0.10;0.10;;;2.50;99.90;;;;;;4985474;28;20686;-69
2022/01/11 11:31:11;;;;;;;0.17;0.17;;;2.60;99.90;;;;;;4985023;28;20620;-69
2022/01/11 11:33:39;;;;;;;0.10;0.10;;;2.50;99.90;;;;;;4986050;28;20660;-69
2022/01/11 11:36:07;;;;;;;0.10;0.10;;;2.60;99.90;;;;;;4980242;28;20625;-69
2022/01/11 11:38:37;;;;;;;0.10;0.10;;;2.50;99.90;;;;;;4981554;28;20639;-69
2022/01/11 11:41:06;;;;;;;0.20;0.20;;;2.50;99.90;;;;;;4979019;28;20729;-68
2022/01/11 11:43:33;;;;;;;0.17;0.17;;;2.50;99.90;;;;;;4975366;28;20675;-69
2022/01/11 11:46:00;;;;;;;0.10;0.10;;;2.50;99.90;;;;;;4978355;28;20638;-69
2022/01/11 11:48:29;;;;;;;0.10;0.10;;;2.50;99.90;;;;;;4982327;28;20622;-69
2022/01/11 11:50:58;;;;;;;0.10;0.10;;;2.50;99.90;;;;;;4984700;28;20682;-69
2022/01/11 11:53:31;;;;;;;0.10;0.10;;;2.60;99.90;;;;;;4981068;28;20663;-68
2022/01/11 11:56:21;;;;;;;0.10;0.10;;;2.60;99.90;;;;;;4984007;28;20636;-69
2022/01/11 11:58:50;;;;;;;0.20;0.20;;;2.60;99.90;;;;;;4983841;28;20635;-69
2022/01/11 12:01:42;;;;;;;0.10;0.10;;;2.60;99.90;;;;;;4983298;28;20731;-69
2022/01/11 12:04:11;;;;;;;0.10;0.10;;;2.60;99.90;;;;;;4983967;28;20737;-69
2022/01/11 12:06:38;;;;;;;0.10;0.10;;;2.70;99.90;;;;;;4985077;28;21187;-69
2022/01/11 12:09:09;;;;;;;0.10;0.10;;;2.60;99.90;;;;;;4985295;28;20625;-68
2022/01/11 12:11:39;;;;;;;0.10;0.10;;;2.60;99.90;;;;;;4985877;28;20620;-68
2022/01/11 12:14:07;;;;;;;0.10;0.10;;;2.60;99.90;;;;;;4983284;28;20680;-69
2022/01/11 12:16:42;;;;;;;0.10;0.10;;;2.60;99.90;;;;;;4987271;28;20616;-69
2022/01/11 12:19:35;;;;;;;0.10;0.10;;;2.70;99.90;;;;;;4987208;28;20646;-69
2022/01/11 12:22:22;;;;;;;0.10;0.10;;;2.70;99.90;;;;;;4986867;28;20632;-69
2022/01/11 12:24:51;;;;;;;0.10;0.10;;;2.80;99.90;;;;;;4989129;28;20648;-68
2022/01/11 12:27:22;;;;;;;0.20;0.20;;;2.80;99.90;;;;;;4989670;28;20620;-69
2022/01/11 12:29:59;;;;;;;0.20;0.20;;;2.80;99.90;;;;;;4984383;28;20610;-68
2022/01/11 12:32:27;;;;;;;0.10;0.10;;;2.70;99.90;;;;;;5002106;28;21320;-70
2022/01/11 12:34:57;;;;;;;0.10;0.10;;;2.70;99.90;;;;;;4988132;28;20652;-69
2022/01/11 12:37:31;;;;;;;0.20;0.20;;;2.70;99.90;;;;;;4984418;28;20690;-69
2022/01/11 12:40:20;;;;;;;0.10;0.10;;;2.70;99.90;;;;;;4989235;28;20675;-68
2022/01/11 12:42:54;;;;;;;0.10;0.10;;;2.80;99.90;;;;;;4985730;28;20680;-68
2022/01/11 12:46:02;;;;;;;0.10;0.10;;;2.70;99.90;;;;;;4985822;28;20636;-69
2022/01/11 12:49:06;;;;;;;0.17;0.17;;;2.70;99.90;;;;;;4984875;28;20628;-68
2022/01/11 12:51:37;;;;;;;0.10;0.10;;;2.70;99.90;;;;;;5019161;28;20618;-69
2022/01/11 12:54:13;;;;;;;0.10;0.10;;;2.70;99.90;;;;;;4986986;28;20668;-68
2022/01/11 12:56:41;;;;;;;0.17;0.17;;;2.80;99.90;;;;;;4982865;28;20719;-68
2022/01/11 12:59:09;;;;;;;0.20;0.20;;;2.90;99.90;;;;;;4987838;28;20670;-69
2022/01/11 13:01:36;;;;;;;0.20;0.20;;;2.90;99.90;;;;;;4986597;28;20635;-69
2022/01/11 13:04:03;;;;;;;0.17;0.17;;;2.90;99.90;;;;;;4983226;28;20694;-69
2022/01/11 13:06:30;;;;;;;0.10;0.10;;;2.90;99.90;;;;;;4987505;28;21103;-69
2022/01/11 13:08:59;;;;;;;0.10;0.10;;;2.90;99.90;;;;;;4985104;28;20625;-69
2022/01/11 13:11:26;;;;;;;0.17;0.17;;;2.90;99.90;;;;;;4985154;28;20686;-69
2022/01/11 13:14:16;;;;;;;0.20;0.20;;;2.90;99.90;;;;;;4987122;28;20671;-69
2022/01/11 13:16:46;;;;;;;0.10;0.10;;;2.90;99.90;;;;;;4986438;28;20632;-69